Time;durP1;ratioP1;P1;durP2;ratioP2;P2;SDS_P1;SDS_P2;PMS_P1;PMS_P2;Temp;Humidity;BMP_temperature;BMP_pressure;BME280_temperature;BME280_humidity;BME280_pressure;Samples;Min_cycle;Max_cycle;Signal;HPM_P1;HPM_P2
2023/04/29 00:01:09;;;;;;;7.30;4.15;;;20.90;53.50;;;;;;4820273;29;20133;-71
2023/04/29 00:03:35;;;;;;;6.65;4.65;;;20.90;53.60;;;;;;4821949;29;20046;-71
2023/04/29 00:06:01;;;;;;;10.82;4.40;;;20.90;53.50;;;;;;4821706;29;20122;-71
2023/04/29 00:08:27;;;;;;;6.25;4.03;;;20.90;53.40;;;;;;4820635;29;20152;-71
2023/04/29 00:10:54;;;;;;;6.45;4.07;;;20.90;53.40;;;;;;4820334;29;20046;-71
2023/04/29 00:13:20;;;;;;;7.53;4.35;;;20.90;53.40;;;;;;4820524;29;20054;-71
2023/04/29 00:15:46;;;;;;;6.57;4.15;;;20.90;53.40;;;;;;4821661;29;20121;-71
2023/04/29 00:18:13;;;;;;;7.50;4.03;;;20.90;53.30;;;;;;4821570;29;20034;-70
2023/04/29 00:20:39;;;;;;;5.05;3.70;;;21.00;53.20;;;;;;4820013;29;20042;-71
2023/04/29 00:23:06;;;;;;;7.90;4.22;;;20.90;53.20;;;;;;4821578;29;20042;-70
2023/04/29 00:25:32;;;;;;;6.10;4.57;;;21.00;53.20;;;;;;4821858;29;20038;-71
2023/04/29 00:28:00;;;;;;;7.93;4.30;;;21.00;53.20;;;;;;4821491;29;20034;-71
2023/04/29 00:30:27;;;;;;;8.20;4.25;;;20.90;53.20;;;;;;4821667;29;20176;-70
2023/04/29 00:32:54;;;;;;;5.55;3.97;;;20.90;53.30;;;;;;4822719;29;20110;-71
2023/04/29 00:35:20;;;;;;;7.57;4.45;;;20.80;53.20;;;;;;4824815;29;20059;-70
2023/04/29 00:37:46;;;;;;;6.80;3.50;;;20.80;53.10;;;;;;4838892;29;20038;-71
2023/04/29 00:40:13;;;;;;;7.35;4.60;;;20.90;53.30;;;;;;4823390;29;20045;-70
2023/04/29 00:42:40;;;;;;;10.52;4.75;;;20.90;53.30;;;;;;4838414;29;20133;-71
2023/04/29 00:45:07;;;;;;;4.90;3.70;;;20.70;53.20;;;;;;4823406;29;20475;-70
2023/04/29 00:47:33;;;;;;;7.20;4.40;;;20.80;53.20;;;;;;4824559;29;20043;-70
2023/04/29 00:50:00;;;;;;;7.32;3.65;;;20.70;53.20;;;;;;4823795;29;20046;-70
2023/04/29 00:52:30;;;;;;;3.85;3.28;;;20.80;53.20;;;;;;4823194;29;20057;-71
2023/04/29 00:54:57;;;;;;;7.70;3.92;;;20.70;53.10;;;;;;4824480;29;20073;-71
2023/04/29 00:57:23;;;;;;;5.57;3.95;;;20.70;53.20;;;;;;4823460;29;20439;-71
2023/04/29 00:59:49;;;;;;;9.73;4.18;;;20.80;53.10;;;;;;4838536;29;20038;-70
2023/04/29 01:02:16;;;;;;;7.20;4.43;;;20.60;53.00;;;;;;4824378;29;20062;-71
2023/04/29 01:04:42;;;;;;;5.18;4.03;;;20.70;53.00;;;;;;4824321;29;20607;-70
2023/04/29 01:07:29;;;;;;;7.40;4.50;;;20.70;53.00;;;;;;4824292;29;20072;-69
2023/04/29 01:10:08;;;;;;;9.60;4.15;;;20.70;52.90;;;;;;4824159;29;20109;-70
2023/04/29 01:12:48;;;;;;;10.75;4.18;;;20.70;52.80;;;;;;4837920;29;20046;-70
2023/04/29 01:15:21;;;;;;;9.25;4.45;;;20.80;52.80;;;;;;4838476;29;20088;-71
2023/04/29 01:17:56;;;;;;;7.75;4.20;;;20.80;52.80;;;;;;4822943;29;20107;-70
2023/04/29 01:20:24;;;;;;;7.18;4.18;;;20.80;52.80;;;;;;4822937;29;20077;-70
2023/04/29 01:22:51;;;;;;;4.97;4.07;;;20.70;52.80;;;;;;4822700;29;20113;-71
2023/04/29 01:25:18;;;;;;;8.63;4.30;;;20.70;52.90;;;;;;4837970;29;20026;-71
2023/04/29 01:28:35;;;;;;;7.70;4.22;;;20.60;52.80;;;;;;4823654;29;20030;-70
2023/04/29 01:31:35;;;;;;;5.78;4.32;;;20.60;52.80;;;;;;4837898;29;20041;-70
2023/04/29 01:34:14;;;;;;;7.28;3.63;;;20.70;52.90;;;;;;4837871;29;20475;-71
2023/04/29 01:36:52;;;;;;;4.78;3.35;;;20.60;52.80;;;;;;4822544;29;20047;-71
2023/04/29 01:39:40;;;;;;;6.80;3.72;;;20.60;52.80;;;;;;4857995;29;20552;-70
2023/04/29 01:42:17;;;;;;;5.18;4.40;;;20.60;52.80;;;;;;4842577;29;20052;-71
2023/04/29 01:44:46;;;;;;;7.57;4.00;;;20.60;52.70;;;;;;4859287;29;20093;-71
2023/04/29 01:47:13;;;;;;;8.52;4.75;;;20.60;52.70;;;;;;4842199;29;20046;-70
2023/04/29 01:49:45;;;;;;;7.57;3.72;;;20.60;52.80;;;;;;4842793;29;20065;-71
2023/04/29 01:52:12;;;;;;;7.03;3.70;;;20.60;52.60;;;;;;4842580;29;20044;-70
2023/04/29 01:54:39;;;;;;;10.40;4.93;;;20.60;52.60;;;;;;4844873;29;20049;-71
2023/04/29 01:57:05;;;;;;;5.82;4.13;;;20.60;52.50;;;;;;4860997;29;20124;-71
2023/04/29 01:59:57;;;;;;;6.68;4.10;;;20.60;52.50;;;;;;4839203;29;20062;-71
2023/04/29 02:02:48;;;;;;;7.80;4.28;;;20.60;52.40;;;;;;4839115;29;20062;-70
2023/04/29 02:05:32;;;;;;;8.75;4.63;;;20.60;52.30;;;;;;4839222;29;20049;-70
2023/04/29 02:08:00;;;;;;;6.35;3.85;;;20.70;52.50;;;;;;4824222;29;20045;-71
2023/04/29 02:10:27;;;;;;;7.15;4.90;;;20.70;52.50;;;;;;4793937;29;20047;-71
2023/04/29 02:13:02;;;;;;;6.00;4.45;;;20.70;52.50;;;;;;4784806;30;20523;-70
2023/04/29 02:15:28;;;;;;;9.32;4.93;;;20.50;52.40;;;;;;4791898;29;20401;-71
2023/04/29 02:17:55;;;;;;;7.10;4.55;;;20.60;52.40;;;;;;4772590;29;20059;-71
2023/04/29 02:20:21;;;;;;;7.82;4.55;;;20.60;52.40;;;;;;4787498;29;20047;-70
2023/04/29 02:22:47;;;;;;;6.20;4.05;;;20.50;52.50;;;;;;4787554;29;20074;-70
2023/04/29 02:25:13;;;;;;;5.28;4.20;;;20.50;52.50;;;;;;4787514;29;20054;-71
2023/04/29 02:27:39;;;;;;;5.25;4.13;;;20.50;52.60;;;;;;4787392;29;20043;-70
2023/04/29 02:30:06;;;;;;;5.82;3.63;;;20.40;52.50;;;;;;4802441;29;20120;-70
2023/04/29 02:32:32;;;;;;;7.38;4.70;;;20.30;52.50;;;;;;4787339;29;20511;-71
2023/04/29 02:34:58;;;;;;;6.35;4.28;;;20.50;52.50;;;;;;4802409;29;20038;-71
2023/04/29 02:37:24;;;;;;;10.13;4.30;;;20.40;52.50;;;;;;4831067;29;20061;-70
2023/04/29 02:39:51;;;;;;;6.65;4.00;;;20.40;52.50;;;;;;4840973;29;20078;-70
2023/04/29 02:42:19;;;;;;;8.75;4.38;;;20.40;52.50;;;;;;4841068;29;20044;-70
2023/04/29 02:44:45;;;;;;;6.97;4.55;;;20.40;52.40;;;;;;4841002;29;20050;-71
2023/04/29 02:47:11;;;;;;;7.38;3.70;;;20.30;52.30;;;;;;4839798;29;20395;-71
2023/04/29 02:49:37;;;;;;;6.88;4.25;;;20.40;52.30;;;;;;4839777;29;20037;-71
2023/04/29 02:52:03;;;;;;;10.80;4.50;;;20.30;52.20;;;;;;4824971;29;20133;-71
2023/04/29 02:54:30;;;;;;;7.18;5.40;;;20.30;52.10;;;;;;4839267;29;20064;-69
2023/04/29 02:56:57;;;;;;;7.30;5.20;;;20.40;52.00;;;;;;4820178;29;20054;-71
2023/04/29 02:59:23;;;;;;;10.00;4.90;;;20.40;52.00;;;;;;4820209;29;20137;-70
2023/04/29 03:01:49;;;;;;;9.45;5.22;;;20.50;52.00;;;;;;4819857;29;20133;-71
2023/04/29 03:04:15;;;;;;;12.95;5.57;;;20.50;52.00;;;;;;4804962;29;20119;-71
2023/04/29 03:06:42;;;;;;;7.40;4.85;;;20.50;52.00;;;;;;4801673;29;20498;-71
2023/04/29 03:09:12;;;;;;;7.35;4.70;;;20.40;51.90;;;;;;4801736;29;20073;-70
2023/04/29 03:11:38;;;;;;;6.47;4.72;;;20.40;51.90;;;;;;4801797;29;20051;-71
2023/04/29 03:14:04;;;;;;;6.80;4.25;;;20.20;51.90;;;;;;4802068;29;20042;-70
2023/04/29 03:16:30;;;;;;;6.38;4.70;;;20.30;52.00;;;;;;4786629;29;20153;-70
2023/04/29 03:18:57;;;;;;;5.20;4.38;;;20.40;52.00;;;;;;4802008;29;20847;-70
2023/04/29 03:21:25;;;;;;;9.45;4.38;;;20.30;52.00;;;;;;4801551;29;20059;-70
2023/04/29 03:23:51;;;;;;;6.38;4.38;;;20.30;52.10;;;;;;4801886;29;20043;-70
2023/04/29 03:26:24;;;;;;;13.20;5.43;;;20.30;52.00;;;;;;4786887;29;20487;-70
2023/04/29 03:28:50;;;;;;;5.85;4.35;;;20.30;52.00;;;;;;4801753;29;20053;-70
2023/04/29 03:31:17;;;;;;;9.52;4.72;;;20.30;52.00;;;;;;4801741;29;20054;-70
2023/04/29 03:33:43;;;;;;;6.93;4.75;;;20.30;52.00;;;;;;4786143;29;20523;-71
2023/04/29 03:36:09;;;;;;;8.77;4.93;;;20.30;51.90;;;;;;4783752;29;20440;-71
2023/04/29 03:39:04;;;;;;;10.10;5.25;;;20.20;51.70;;;;;;4820090;29;20064;-71
2023/04/29 03:41:31;;;;;;;8.23;5.65;;;20.30;51.60;;;;;;4804499;29;20046;-71
2023/04/29 03:44:00;;;;;;;8.73;5.55;;;20.30;51.50;;;;;;4836247;29;20057;-71
2023/04/29 03:46:27;;;;;;;7.90;5.22;;;20.40;51.40;;;;;;4823087;29;20134;-71
2023/04/29 03:48:56;;;;;;;8.23;5.47;;;20.30;51.20;;;;;;4837928;29;20176;-71
2023/04/29 03:51:23;;;;;;;11.70;6.60;;;20.50;51.40;;;;;;4771979;29;20407;-71
2023/04/29 03:53:55;;;;;;;7.07;4.57;;;20.60;51.10;;;;;;4801621;29;20081;-71
2023/04/29 03:56:21;;;;;;;14.18;7.97;;;20.90;50.50;;;;;;4771648;29;20051;-71
2023/04/29 03:58:48;;;;;;;14.18;7.25;;;21.00;50.00;;;;;;4801342;29;20046;-71
2023/04/29 04:01:14;;;;;;;11.10;5.68;;;21.00;49.70;;;;;;4786204;29;20507;-71
2023/04/29 04:03:44;;;;;;;9.75;6.60;;;21.10;49.50;;;;;;4801376;29;20514;-71
2023/04/29 04:06:10;;;;;;;11.88;6.28;;;21.40;49.50;;;;;;4786756;29;20039;-71
2023/04/29 04:08:36;;;;;;;11.70;5.63;;;21.40;49.30;;;;;;4789591;29;20129;-71
2023/04/29 04:11:14;;;;;;;7.13;4.60;;;21.20;49.30;;;;;;4804829;29;20050;-72
2023/04/29 04:14:01;;;;;;;9.20;5.35;;;21.20;52.30;;;;;;4805130;29;20043;-71
2023/04/29 04:16:27;;;;;;;14.95;5.28;;;21.90;54.00;;;;;;4806156;29;20108;-73
2023/04/29 04:18:53;;;;;;;11.73;5.47;;;22.10;53.00;;;;;;4790945;29;20050;-72
2023/04/29 04:21:20;;;;;;;10.70;6.07;;;22.30;51.30;;;;;;4820744;29;20077;-71
2023/04/29 04:23:53;;;;;;;14.07;6.18;;;22.30;47.50;;;;;;4821053;29;20132;-72
2023/04/29 04:26:22;;;;;;;15.13;6.40;;;22.20;46.90;;;;;;4820942;29;20345;-71
2023/04/29 04:29:07;;;;;;;10.63;6.18;;;22.10;45.80;;;;;;4807009;29;20039;-70
2023/04/29 04:31:47;;;;;;;15.13;4.68;;;21.80;45.60;;;;;;4805875;29;20388;-70
2023/04/29 04:34:15;;;;;;;11.32;5.70;;;21.80;45.90;;;;;;4821316;29;20571;-70
2023/04/29 04:36:41;;;;;;;8.98;5.47;;;21.60;46.70;;;;;;4820682;29;20042;-71
2023/04/29 04:39:07;;;;;;;12.05;5.47;;;21.60;47.30;;;;;;4790648;29;20067;-71
2023/04/29 04:41:33;;;;;;;11.38;5.32;;;21.50;47.70;;;;;;4820773;29;20115;-71
2023/04/29 04:44:01;;;;;;;13.30;5.97;;;21.50;48.10;;;;;;4820574;29;20039;-70
2023/04/29 04:46:38;;;;;;;11.73;5.03;;;21.50;48.60;;;;;;4820618;29;20045;-70
2023/04/29 04:49:11;;;;;;;10.70;4.90;;;21.60;48.80;;;;;;4820140;29;20507;-70
2023/04/29 04:51:46;;;;;;;12.65;5.10;;;21.50;49.10;;;;;;4820414;29;20043;-70
2023/04/29 04:54:13;;;;;;;6.18;4.50;;;21.40;49.00;;;;;;4820567;29;20130;-71
2023/04/29 04:56:39;;;;;;;9.82;6.15;;;21.50;49.60;;;;;;4820340;29;20091;-70
2023/04/29 04:59:07;;;;;;;6.25;4.82;;;21.40;46.60;;;;;;4820411;29;20459;-71
2023/04/29 05:01:35;;;;;;;8.77;4.10;;;21.50;47.30;;;;;;4820054;29;20101;-71
2023/04/29 05:04:02;;;;;;;6.90;3.50;;;21.60;47.50;;;;;;4805328;29;20050;-71
2023/04/29 05:06:29;;;;;;;9.52;5.00;;;21.60;47.70;;;;;;4820289;29;20122;-71
2023/04/29 05:08:56;;;;;;;5.70;2.95;;;21.80;44.70;;;;;;4790105;29;20046;-70
2023/04/29 05:11:23;;;;;;;5.72;3.45;;;21.70;43.20;;;;;;4820114;29;20043;-70
2023/04/29 05:14:04;;;;;;;8.82;4.82;;;21.80;43.20;;;;;;4819941;29;20079;-71
2023/04/29 05:16:30;;;;;;;7.43;4.72;;;21.70;44.10;;;;;;4819886;29;20039;-70
2023/04/29 05:18:56;;;;;;;9.13;4.90;;;21.70;43.60;;;;;;4805781;29;20066;-69
2023/04/29 05:21:27;;;;;;;7.00;4.45;;;21.70;45.10;;;;;;4819851;29;20038;-71
2023/04/29 05:23:53;;;;;;;7.97;4.60;;;21.70;45.20;;;;;;4820030;29;20385;-71
2023/04/29 05:26:20;;;;;;;9.77;4.60;;;21.70;41.80;;;;;;4820004;29;20053;-71
2023/04/29 05:28:46;;;;;;;6.85;4.70;;;21.80;45.50;;;;;;4819763;29;20087;-71
2023/04/29 05:31:13;;;;;;;9.50;4.47;;;21.90;46.90;;;;;;4820001;29;20073;-71
2023/04/29 05:33:39;;;;;;;8.05;5.10;;;21.80;47.70;;;;;;4819733;29;20476;-71
2023/04/29 05:36:06;;;;;;;8.25;5.35;;;22.00;48.10;;;;;;4818124;29;20034;-71
2023/04/29 05:38:32;;;;;;;4.35;3.80;;;21.90;49.40;;;;;;4822713;29;20133;-71
2023/04/29 05:41:05;;;;;;;8.55;5.32;;;21.90;46.10;;;;;;4822534;29;20049;-71
2023/04/29 05:43:46;;;;;;;6.95;4.85;;;22.00;45.40;;;;;;4808045;29;20035;-72
2023/04/29 05:46:13;;;;;;;10.32;5.20;;;21.90;44.60;;;;;;4822517;29;20511;-72
2023/04/29 05:48:40;;;;;;;11.52;5.45;;;21.90;47.20;;;;;;4832762;29;20042;-72
2023/04/29 05:51:06;;;;;;;8.90;4.95;;;21.90;44.40;;;;;;4807382;29;20042;-70
2023/04/29 05:53:32;;;;;;;4.45;2.38;;;21.90;42.40;;;;;;4823022;29;20136;-77
2023/04/29 05:55:58;;;;;;;5.97;3.50;;;22.00;53.30;;;;;;4823211;29;20098;-77
2023/04/29 05:58:25;;;;;;;5.45;3.50;;;22.10;55.10;;;;;;4807544;29;20030;-75
2023/04/29 06:00:51;;;;;;;5.00;3.28;;;22.20;53.80;;;;;;4822475;29;20035;-75
2023/04/29 06:03:24;;;;;;;;;;;22.20;54.90;;;;;;4823066;29;20038;-76
2023/04/29 06:05:57;;;;;;;4.03;3.00;;;22.30;53.70;;;;;;4808097;29;19919;-78
2023/04/29 06:08:46;;;;;;;8.77;4.35;;;22.20;53.00;;;;;;4824825;29;20468;-71
2023/04/29 06:11:23;;;;;;;6.68;4.20;;;22.40;52.60;;;;;;4822206;29;20071;-69
2023/04/29 06:13:49;;;;;;;5.30;3.67;;;22.40;50.90;;;;;;4823186;29;20492;-70
2023/04/29 06:16:15;;;;;;;4.88;3.60;;;22.30;50.20;;;;;;4822021;29;20038;-70
2023/04/29 06:18:41;;;;;;;6.65;3.83;;;22.40;49.60;;;;;;4810325;29;20117;-71
2023/04/29 06:21:07;;;;;;;6.20;4.30;;;22.40;49.40;;;;;;4819125;29;20187;-71
2023/04/29 06:23:34;;;;;;;9.88;4.90;;;22.40;49.50;;;;;;4820324;29;20058;-70
2023/04/29 06:26:05;;;;;;;5.70;3.55;;;22.50;49.70;;;;;;4822129;29;20045;-71
2023/04/29 06:28:31;;;;;;;4.32;3.17;;;22.60;49.60;;;;;;4821441;29;20034;-71
2023/04/29 06:30:57;;;;;;;5.32;3.55;;;22.60;49.60;;;;;;4821333;29;20479;-70
2023/04/29 06:33:23;;;;;;;6.93;4.93;;;22.60;49.30;;;;;;4821512;29;20053;-70
2023/04/29 06:35:49;;;;;;;7.57;4.15;;;22.60;48.80;;;;;;4803309;29;20130;-69
2023/04/29 06:38:34;;;;;;;7.68;4.38;;;22.50;48.80;;;;;;4816631;29;20164;-73
2023/04/29 06:41:13;;;;;;;7.20;4.05;;;22.50;48.90;;;;;;4818658;29;20054;-72
2023/04/29 06:43:48;;;;;;;8.80;4.03;;;22.70;49.00;;;;;;4804658;29;20074;-71
2023/04/29 06:46:15;;;;;;;8.48;4.75;;;22.60;48.70;;;;;;4804450;29;20031;-72
2023/04/29 06:48:59;;;;;;;5.25;3.70;;;22.60;48.50;;;;;;4806864;29;20046;-70
2023/04/29 06:51:27;;;;;;;6.65;3.45;;;22.50;48.50;;;;;;4817380;29;20120;-69
2023/04/29 06:53:54;;;;;;;6.57;4.07;;;22.60;48.30;;;;;;4817452;29;20129;-71
2023/04/29 06:56:20;;;;;;;7.35;4.22;;;22.40;48.60;;;;;;4805078;29;20050;-74
2023/04/29 06:58:47;;;;;;;5.75;3.78;;;22.70;49.70;;;;;;4820265;29;20109;-72
2023/04/29 07:01:13;;;;;;;5.30;3.58;;;22.50;49.00;;;;;;4820226;29;20072;-75
2023/04/29 07:03:39;;;;;;;4.93;3.65;;;22.60;48.40;;;;;;4820391;29;20042;-74
2023/04/29 07:06:05;;;;;;;9.95;3.88;;;22.50;47.30;;;;;;4805181;29;20506;-72
2023/04/29 07:08:32;;;;;;;7.32;4.10;;;22.60;48.10;;;;;;4805031;29;20487;-70
2023/04/29 07:10:58;;;;;;;6.03;3.20;;;22.60;47.60;;;;;;4820182;29;20054;-71
2023/04/29 07:13:25;;;;;;;7.10;2.75;;;22.70;46.80;;;;;;4805837;29;20522;-74
2023/04/29 07:15:51;;;;;;;3.70;2.15;;;22.60;47.80;;;;;;4820090;29;20041;-73
2023/04/29 07:18:17;;;;;;;5.80;2.92;;;22.60;47.70;;;;;;4820084;29;20054;-75
2023/04/29 07:20:44;;;;;;;5.32;2.90;;;22.60;46.70;;;;;;4820185;29;20039;-72
2023/04/29 07:23:10;;;;;;;7.82;3.00;;;22.60;45.70;;;;;;4807102;29;20085;-73
2023/04/29 07:25:36;;;;;;;3.13;2.67;;;22.50;45.20;;;;;;4802826;29;20050;-73
2023/04/29 07:28:04;;;;;;;2.47;2.10;;;22.50;46.40;;;;;;4803047;29;20046;-77
2023/04/29 07:30:30;;;;;;;6.47;2.65;;;22.50;44.70;;;;;;4803613;29;20050;-76
2023/04/29 07:32:57;;;;;;;3.40;2.60;;;22.50;47.50;;;;;;4788230;29;20042;-74
2023/04/29 07:35:23;;;;;;;5.18;2.33;;;22.50;44.90;;;;;;4810888;29;20044;-72
2023/04/29 07:37:49;;;;;;;3.17;2.10;;;22.60;46.90;;;;;;4820969;29;20487;-72
2023/04/29 07:40:16;;;;;;;1.65;1.48;;;22.50;47.50;;;;;;4843923;29;20037;-72
2023/04/29 07:42:43;;;;;;;10.30;2.20;;;22.40;47.80;;;;;;4858379;29;20046;-72
2023/04/29 07:45:10;;;;;;;3.97;2.38;;;22.70;48.00;;;;;;4843200;29;20070;-73
2023/04/29 07:47:36;;;;;;;7.05;2.60;;;22.60;47.90;;;;;;4842862;29;20038;-71
2023/04/29 07:50:04;;;;;;;9.35;2.90;;;22.60;48.00;;;;;;4842495;29;20432;-71
2023/04/29 07:52:30;;;;;;;2.55;1.95;;;22.70;48.30;;;;;;4843989;29;20045;-71
2023/04/29 07:54:56;;;;;;;2.22;1.60;;;22.60;47.50;;;;;;4841246;29;20038;-71
2023/04/29 07:57:22;;;;;;;2.13;1.42;;;22.50;48.40;;;;;;4842813;29;20148;-71
2023/04/29 07:59:52;;;;;;;4.50;1.45;;;22.70;50.00;;;;;;4843620;29;20491;-70
2023/04/29 08:02:19;;;;;;;3.38;2.00;;;22.70;49.70;;;;;;4842560;29;20050;-71
2023/04/29 08:04:46;;;;;;;2.03;1.02;;;22.60;48.80;;;;;;4842405;29;20458;-70
2023/04/29 08:07:13;;;;;;;4.88;1.40;;;22.60;48.00;;;;;;4842493;29;20036;-69
2023/04/29 08:09:39;;;;;;;2.53;1.60;;;22.70;48.50;;;;;;4842362;29;20439;-70
2023/04/29 08:12:06;;;;;;;2.95;1.65;;;22.80;49.40;;;;;;4842481;29;20037;-72
2023/04/29 08:14:32;;;;;;;5.65;2.80;;;22.80;45.80;;;;;;4843671;29;20844;-70
2023/04/29 08:16:59;;;;;;;2.13;1.60;;;22.60;48.10;;;;;;4842421;29;20102;-70
2023/04/29 08:19:25;;;;;;;4.15;1.58;;;22.70;49.40;;;;;;4842168;29;20488;-69
2023/04/29 08:21:51;;;;;;;2.42;1.40;;;22.70;49.50;;;;;;4843583;29;20058;-72
2023/04/29 08:24:17;;;;;;;3.28;1.95;;;22.70;50.40;;;;;;4843574;29;20026;-70
2023/04/29 08:26:43;;;;;;;4.68;1.67;;;22.80;49.80;;;;;;4822649;29;20475;-72
2023/04/29 08:29:09;;;;;;;3.05;1.58;;;22.70;50.50;;;;;;4822635;29;20057;-71
2023/04/29 08:31:35;;;;;;;2.67;1.63;;;22.60;51.10;;;;;;4822525;29;20084;-71
2023/04/29 08:34:02;;;;;;;3.00;2.08;;;22.80;51.20;;;;;;4822692;29;20046;-72
2023/04/29 08:36:28;;;;;;;2.90;1.60;;;22.80;51.90;;;;;;4807538;29;20055;-69
2023/04/29 08:38:55;;;;;;;1.98;1.63;;;22.80;52.30;;;;;;4807545;29;20121;-72
2023/04/29 08:41:22;;;;;;;1.50;1.40;;;22.70;52.00;;;;;;4807244;29;20050;-72
2023/04/29 08:43:48;;;;;;;2.33;1.77;;;22.80;48.80;;;;;;4822515;29;20087;-72
2023/04/29 08:46:14;;;;;;;1.33;1.00;;;22.60;50.00;;;;;;4822373;29;20085;-71
2023/04/29 08:48:40;;;;;;;1.00;0.95;;;22.60;44.10;;;;;;4822447;29;20512;-72
2023/04/29 08:51:07;;;;;;;1.52;1.42;;;22.60;44.40;;;;;;4822362;29;20050;-72
2023/04/29 08:53:33;;;;;;;1.95;1.40;;;22.60;44.90;;;;;;4821671;29;20042;-73
2023/04/29 08:56:08;;;;;;;2.97;1.83;;;22.50;46.20;;;;;;4822263;29;20399;-71
2023/04/29 08:58:38;;;;;;;3.47;2.08;;;22.90;48.10;;;;;;4839673;29;20062;-71
2023/04/29 09:01:08;;;;;;;5.93;1.40;;;23.00;49.50;;;;;;4842632;29;20042;-71
2023/04/29 09:03:43;;;;;;;2.08;1.38;;;23.20;49.30;;;;;;4842989;29;20038;-72
2023/04/29 09:06:11;;;;;;;5.20;2.05;;;23.30;52.20;;;;;;4842792;29;20407;-71
2023/04/29 09:08:38;;;;;;;2.65;1.73;;;23.30;52.50;;;;;;4842656;29;20035;-71
2023/04/29 09:11:09;;;;;;;4.85;1.50;;;23.40;51.70;;;;;;4842718;29;20390;-72
2023/04/29 09:13:35;;;;;;;2.05;1.35;;;23.40;50.30;;;;;;4844058;29;20613;-72
2023/04/29 09:16:01;;;;;;;1.55;1.15;;;23.20;47.00;;;;;;4842833;29;20856;-70
2023/04/29 09:18:48;;;;;;;2.22;1.20;;;23.20;47.40;;;;;;4842903;29;20034;-70
2023/04/29 09:21:17;;;;;;;1.60;1.50;;;23.20;46.80;;;;;;4842639;29;20186;-69
2023/04/29 09:23:44;;;;;;;0.77;0.77;;;23.10;46.10;;;;;;4842466;29;20529;-68
2023/04/29 09:26:10;;;;;;;1.33;1.23;;;23.20;48.90;;;;;;4842488;29;20074;-68
2023/04/29 09:28:38;;;;;;;2.38;1.55;;;23.10;49.40;;;;;;4824983;29;20034;-69
2023/04/29 09:31:06;;;;;;;2.10;1.83;;;23.20;49.70;;;;;;4838040;29;20034;-70
2023/04/29 09:33:53;;;;;;;8.32;1.50;;;23.20;50.10;;;;;;4837944;29;20038;-70
2023/04/29 09:36:55;;;;;;;1.55;1.38;;;23.10;50.80;;;;;;4826249;29;20067;-68
2023/04/29 09:39:25;;;;;;;5.88;2.40;;;23.30;48.90;;;;;;4785166;30;20061;-70
2023/04/29 09:41:51;;;;;;;3.58;1.98;;;23.70;49.00;;;;;;4785216;30;20059;-69
2023/04/29 09:44:22;;;;;;;6.32;2.10;;;23.80;60.40;;;;;;4785374;30;20050;-71
2023/04/29 09:46:58;;;;;;;4.90;2.70;;;23.90;48.80;;;;;;4785627;30;20492;-70
2023/04/29 09:49:27;;;;;;;3.42;2.20;;;24.30;56.80;;;;;;4785208;30;20055;-70
2023/04/29 09:51:55;;;;;;;4.03;2.15;;;24.50;58.30;;;;;;4785450;30;20043;-71
2023/04/29 09:54:22;;;;;;;1.30;1.20;;;24.80;56.40;;;;;;4785088;30;20125;-69
2023/04/29 09:56:52;;;;;;;1.27;1.17;;;24.90;46.60;;;;;;4785363;30;20054;-70
2023/04/29 09:59:19;;;;;;;2.78;1.60;;;24.90;55.00;;;;;;4784948;30;20461;-71
2023/04/29 10:01:50;;;;;;;2.92;1.30;;;24.70;55.10;;;;;;4784925;30;20063;-69
2023/04/29 10:04:17;;;;;;;3.80;1.33;;;24.70;56.10;;;;;;4785036;29;20134;-70
2023/04/29 10:06:49;;;;;;;2.92;1.75;;;24.70;53.70;;;;;;4785107;30;20062;-69
2023/04/29 10:09:16;;;;;;;1.23;1.13;;;24.60;52.90;;;;;;4784880;30;20061;-71
2023/04/29 10:11:47;;;;;;;4.38;1.50;;;24.50;51.70;;;;;;4784998;30;20047;-70
2023/04/29 10:14:24;;;;;;;6.85;1.70;;;24.40;50.30;;;;;;4793719;29;20050;-71
2023/04/29 10:17:16;;;;;;;2.70;2.08;;;24.40;51.90;;;;;;4823548;29;20030;-69
2023/04/29 10:19:58;;;;;;;1.23;1.15;;;24.40;52.50;;;;;;4823003;29;20100;-72
2023/04/29 10:22:46;;;;;;;1.65;1.55;;;24.30;52.30;;;;;;4823306;29;20091;-68
2023/04/29 10:25:17;;;;;;;1.73;1.30;;;24.30;51.50;;;;;;4823354;29;20034;-68
2023/04/29 10:27:45;;;;;;;1.38;1.10;;;24.30;51.20;;;;;;4823183;29;20376;-68
2023/04/29 10:30:13;;;;;;;4.10;1.20;;;24.20;52.30;;;;;;4823225;29;20066;-68
2023/04/29 10:32:42;;;;;;;1.85;1.33;;;24.30;50.20;;;;;;4823137;29;20806;-71
2023/04/29 10:35:11;;;;;;;4.50;1.08;;;24.30;52.40;;;;;;4823103;29;20045;-70
2023/04/29 10:37:38;;;;;;;1.92;1.08;;;24.20;50.60;;;;;;4823201;29;20042;-71
2023/04/29 10:40:04;;;;;;;2.20;1.33;;;24.20;51.90;;;;;;4823038;29;20030;-70
2023/04/29 10:42:42;;;;;;;3.00;1.63;;;24.10;52.40;;;;;;4823341;29;20053;-69
2023/04/29 10:45:30;;;;;;;3.63;1.50;;;24.20;52.60;;;;;;4823277;29;20042;-69
2023/04/29 10:48:05;;;;;;;3.17;1.38;;;24.10;52.80;;;;;;4823013;29;20045;-69
2023/04/29 10:50:33;;;;;;;3.65;1.65;;;24.00;52.50;;;;;;4822716;29;20110;-69
2023/04/29 10:53:03;;;;;;;3.78;1.25;;;24.10;54.00;;;;;;4822762;29;20034;-70
2023/04/29 10:55:34;;;;;;;4.07;1.70;;;24.10;57.80;;;;;;4820766;29;20081;-69
2023/04/29 10:58:02;;;;;;;5.45;1.80;;;24.00;58.00;;;;;;4822863;29;20066;-68
2023/04/29 11:00:33;;;;;;;2.85;1.65;;;24.00;57.30;;;;;;4822885;29;20049;-69
2023/04/29 11:03:01;;;;;;;4.38;1.10;;;24.10;51.40;;;;;;4822675;29;20438;-69
2023/04/29 11:05:35;;;;;;;2.40;2.03;;;24.00;55.40;;;;;;4822880;29;20064;-70
2023/04/29 11:08:12;;;;;;;1.90;1.40;;;23.90;53.80;;;;;;4821372;29;20046;-69
2023/04/29 11:10:42;;;;;;;1.38;1.27;;;24.00;51.80;;;;;;4822547;29;20042;-70
2023/04/29 11:13:28;;;;;;;1.15;1.05;;;24.00;54.60;;;;;;4822757;29;20042;-69
2023/04/29 11:16:04;;;;;;;5.38;1.17;;;24.00;54.80;;;;;;4822275;29;20065;-69
2023/04/29 11:18:31;;;;;;;2.30;1.10;;;24.00;54.60;;;;;;4822638;29;20042;-69
2023/04/29 11:21:03;;;;;;;2.00;1.17;;;24.00;53.80;;;;;;4822500;29;20388;-69
2023/04/29 11:23:30;;;;;;;2.53;1.27;;;24.00;52.90;;;;;;4822341;29;20034;-69
2023/04/29 11:25:56;;;;;;;2.15;1.27;;;24.10;49.50;;;;;;4820069;29;20050;-69
2023/04/29 11:28:27;;;;;;;9.20;1.65;;;24.00;49.60;;;;;;4819919;29;20058;-68
2023/04/29 11:30:53;;;;;;;1.42;1.30;;;24.00;51.20;;;;;;4819630;29;20099;-68
2023/04/29 11:33:19;;;;;;;1.60;1.42;;;24.00;51.00;;;;;;4819552;29;20047;-69
2023/04/29 11:35:46;;;;;;;0.95;0.95;;;23.90;50.80;;;;;;4822030;29;20513;-70
2023/04/29 11:38:12;;;;;;;1.90;1.02;;;24.10;52.50;;;;;;4819711;29;20506;-68
2023/04/29 11:40:50;;;;;;;5.13;1.35;;;24.10;52.30;;;;;;4819469;29;20130;-68
2023/04/29 11:43:18;;;;;;;2.10;1.40;;;24.10;51.60;;;;;;4819705;29;20483;-71
2023/04/29 11:45:45;;;;;;;1.15;1.05;;;24.00;51.90;;;;;;4819687;29;20084;-70
2023/04/29 11:48:21;;;;;;;1.85;1.20;;;24.00;51.50;;;;;;4819739;29;20039;-70
2023/04/29 11:50:49;;;;;;;2.20;1.30;;;24.00;52.40;;;;;;4834450;29;20102;-70
2023/04/29 11:53:18;;;;;;;1.45;1.00;;;24.00;49.70;;;;;;4837974;29;20141;-69
2023/04/29 11:55:45;;;;;;;2.17;1.55;;;23.90;51.70;;;;;;4837889;29;20154;-68
2023/04/29 11:58:11;;;;;;;1.42;1.20;;;24.00;50.30;;;;;;4840410;29;20662;-71
2023/04/29 12:00:37;;;;;;;1.15;1.00;;;23.90;52.00;;;;;;4840177;29;20042;-70
2023/04/29 12:03:16;;;;;;;2.47;1.38;;;23.90;50.00;;;;;;4840340;29;20093;-71
2023/04/29 12:05:53;;;;;;;3.60;1.23;;;23.90;52.40;;;;;;4838964;29;20042;-70
2023/04/29 12:08:33;;;;;;;2.95;1.13;;;23.90;51.70;;;;;;4840222;29;20034;-70
2023/04/29 12:11:08;;;;;;;2.70;1.00;;;23.90;51.80;;;;;;4840110;29;20447;-70
2023/04/29 12:13:35;;;;;;;1.77;1.40;;;23.80;51.60;;;;;;4838024;29;20418;-70
2023/04/29 12:16:02;;;;;;;0.63;0.63;;;23.80;52.10;;;;;;4838841;29;20038;-70
2023/04/29 12:18:29;;;;;;;3.40;1.10;;;23.90;52.30;;;;;;4840284;29;20080;-70
2023/04/29 12:20:56;;;;;;;1.63;1.23;;;23.90;52.20;;;;;;4839688;29;20054;-71
2023/04/29 12:23:26;;;;;;;2.60;1.55;;;23.90;52.40;;;;;;4840021;29;20455;-70
2023/04/29 12:26:02;;;;;;;2.58;1.10;;;23.80;52.00;;;;;;4840005;29;20098;-69
2023/04/29 12:28:29;;;;;;;2.40;1.08;;;23.80;52.20;;;;;;4839844;29;20078;-70
2023/04/29 12:31:03;;;;;;;7.97;1.77;;;23.90;52.30;;;;;;4843241;29;20487;-70
2023/04/29 12:33:29;;;;;;;2.30;1.15;;;23.80;52.10;;;;;;4825758;29;20054;-70
2023/04/29 12:36:00;;;;;;;1.42;1.10;;;23.80;51.90;;;;;;4843289;29;20458;-70
2023/04/29 12:38:30;;;;;;;2.63;0.88;;;23.90;52.00;;;;;;4843330;29;20080;-70
2023/04/29 12:40:58;;;;;;;1.88;1.48;;;23.80;51.20;;;;;;4843087;29;20129;-70
2023/04/29 12:43:28;;;;;;;1.27;1.17;;;23.80;51.20;;;;;;4843440;29;20042;-70
2023/04/29 12:46:08;;;;;;;1.85;1.35;;;23.90;52.20;;;;;;4842998;29;20521;-73
2023/04/29 12:48:37;;;;;;;4.38;1.15;;;23.80;52.10;;;;;;4857546;29;20148;-71
2023/04/29 12:51:04;;;;;;;2.63;0.90;;;23.90;52.20;;;;;;4842850;29;20034;-70
2023/04/29 12:53:30;;;;;;;4.78;1.00;;;23.90;50.30;;;;;;4843110;29;20038;-71
2023/04/29 12:55:57;;;;;;;1.75;1.15;;;23.80;51.70;;;;;;4843100;29;20068;-70
2023/04/29 12:58:23;;;;;;;2.70;1.13;;;23.80;49.50;;;;;;4843258;29;20042;-70